createdAt,value
2023-08-27T00:01:13.045Z,12.93
2023-08-27T00:03:39.763Z,12.92
2023-08-27T00:06:06.673Z,12.95
2023-08-27T00:08:34.423Z,12.98
2023-08-27T00:11:01.702Z,13.09
2023-08-27T00:13:28.516Z,12.98
2023-08-27T00:15:55.067Z,12.99
2023-08-27T00:18:21.617Z,13.04
2023-08-27T00:20:49.416Z,13.04
2023-08-27T00:23:17.431Z,13.03
2023-08-27T00:25:45.004Z,12.98
2023-08-27T00:28:15.170Z,12.96
2023-08-27T00:30:43.730Z,12.97
2023-08-27T00:33:10.705Z,12.97
2023-08-27T00:35:38.062Z,12.96
2023-08-27T00:38:07.921Z,12.97
2023-08-27T00:40:34.731Z,12.98
2023-08-27T00:43:02.548Z,13.00
2023-08-27T00:45:29.270Z,13.00
2023-08-27T00:47:56.436Z,12.98
2023-08-27T00:50:23.481Z,12.98
2023-08-27T00:52:51.105Z,12.95
2023-08-27T00:55:17.623Z,12.92
2023-08-27T00:57:45.287Z,12.88
2023-08-27T01:00:12.376Z,12.88
2023-08-27T01:02:40.971Z,12.93
2023-08-27T01:05:07.845Z,13.03
2023-08-27T01:07:47.486Z,12.88
2023-08-27T01:10:20.812Z,12.75
2023-08-27T01:13:03.561Z,12.78
2023-08-27T01:15:31.622Z,12.75
2023-08-27T01:18:00.524Z,12.82
2023-08-27T01:20:28.008Z,12.97
2023-08-27T01:22:54.787Z,13.10
2023-08-27T01:25:25.736Z,13.28
2023-08-27T01:28:05.733Z,13.52
2023-08-27T01:30:40.230Z,13.64
2023-08-27T01:33:16.162Z,13.73
2023-08-27T01:35:44.590Z,13.76
2023-08-27T01:38:12.760Z,13.85
2023-08-27T01:40:41.060Z,13.88
2023-08-27T01:43:07.567Z,13.90
2023-08-27T01:45:34.361Z,13.91
2023-08-27T01:48:00.829Z,13.96
2023-08-27T01:50:27.491Z,13.96
2023-08-27T01:52:54.415Z,13.98
2023-08-27T01:55:21.082Z,14.01
2023-08-27T01:57:47.607Z,14.01
2023-08-27T02:00:17.608Z,14.05
2023-08-27T02:02:44.983Z,14.00
2023-08-27T02:05:12.187Z,13.94
2023-08-27T02:07:40.511Z,13.89
2023-08-27T02:10:07.964Z,13.87
2023-08-27T02:12:34.934Z,13.83
2023-08-27T02:15:01.482Z,13.76
2023-08-27T02:17:28.080Z,13.77
2023-08-27T02:19:54.554Z,13.77
2023-08-27T02:22:21.226Z,13.83
2023-08-27T02:24:47.676Z,13.79
2023-08-27T02:27:14.206Z,13.64
2023-08-27T02:29:41.328Z,13.61
2023-08-27T02:32:07.932Z,13.62
2023-08-27T02:34:34.385Z,13.64
2023-08-27T02:37:01.017Z,13.63
2023-08-27T02:39:27.594Z,13.62
2023-08-27T02:41:54.082Z,13.64
2023-08-27T02:44:20.699Z,13.73
2023-08-27T02:46:47.103Z,13.73
2023-08-27T02:49:13.781Z,13.82
2023-08-27T02:51:40.191Z,13.93
2023-08-27T02:54:07.066Z,13.86
2023-08-27T02:56:33.471Z,13.86
2023-08-27T02:59:01.101Z,13.85
2023-08-27T03:01:27.579Z,13.91
2023-08-27T03:03:54.258Z,13.97
2023-08-27T03:06:20.684Z,13.96
2023-08-27T03:08:47.322Z,13.86
2023-08-27T03:11:13.793Z,13.94
2023-08-27T03:13:40.425Z,13.94
2023-08-27T03:16:06.895Z,13.95
2023-08-27T03:18:34.054Z,13.94
2023-08-27T03:21:00.607Z,13.99
2023-08-27T03:23:27.350Z,13.98
2023-08-27T03:25:53.842Z,14.01
2023-08-27T03:28:20.263Z,14.02
2023-08-27T03:30:46.741Z,14.08
2023-08-27T03:33:13.466Z,14.01
2023-08-27T03:35:39.920Z,14.03
2023-08-27T03:38:06.441Z,14.01
2023-08-27T03:40:32.914Z,13.97
2023-08-27T03:42:59.890Z,13.98
2023-08-27T03:45:26.496Z,13.96
2023-08-27T03:47:53.372Z,13.95
2023-08-27T03:50:21.009Z,13.95
2023-08-27T03:52:47.504Z,13.90
2023-08-27T03:55:14.205Z,13.94
2023-08-27T03:57:40.666Z,13.94
2023-08-27T04:00:07.832Z,13.96
2023-08-27T04:02:34.284Z,13.97
2023-08-27T04:05:00.699Z,13.91
2023-08-27T04:07:27.317Z,13.83
2023-08-27T04:09:53.703Z,13.80
2023-08-27T04:12:20.361Z,13.79
2023-08-27T04:14:46.801Z,13.76
2023-08-27T04:17:13.371Z,13.73
2023-08-27T04:19:39.822Z,13.71
2023-08-27T04:22:06.522Z,13.64
2023-08-27T04:24:32.949Z,13.65
2023-08-27T04:26:59.965Z,13.62
2023-08-27T04:29:28.118Z,13.58
2023-08-27T04:31:55.048Z,13.66
2023-08-27T04:34:21.537Z,13.71
2023-08-27T04:36:48.161Z,13.77
2023-08-27T04:39:14.853Z,13.79
2023-08-27T04:41:41.769Z,13.79
2023-08-27T04:44:08.499Z,13.76
2023-08-27T04:46:35.898Z,13.84
2023-08-27T04:49:02.471Z,13.85
2023-08-27T04:51:29.120Z,13.94
2023-08-27T04:53:55.739Z,14.00
2023-08-27T04:56:22.545Z,14.07
2023-08-27T04:58:49.246Z,14.05
2023-08-27T05:01:16.053Z,14.02
2023-08-27T05:03:42.491Z,14.04
2023-08-27T05:06:09.138Z,14.10
2023-08-27T05:08:35.588Z,14.17
2023-08-27T05:11:02.166Z,14.21
2023-08-27T05:13:28.664Z,14.15
2023-08-27T05:15:55.267Z,14.12
2023-08-27T05:18:21.884Z,14.18
2023-08-27T05:20:48.471Z,14.24
2023-08-27T05:23:14.906Z,14.33
2023-08-27T05:25:42.453Z,14.42
2023-08-27T05:28:10.658Z,14.35
2023-08-27T05:30:37.291Z,14.41
2023-08-27T05:33:05.698Z,14.55
2023-08-27T05:35:34.801Z,14.57
2023-08-27T05:38:01.470Z,14.71
2023-08-27T05:40:28.410Z,14.80
2023-08-27T05:42:54.831Z,14.86
2023-08-27T05:45:21.496Z,14.89
2023-08-27T05:47:47.991Z,14.92
2023-08-27T05:50:14.565Z,14.85
2023-08-27T05:52:42.271Z,14.79
2023-08-27T05:55:09.060Z,14.80
2023-08-27T05:57:35.764Z,14.78
2023-08-27T06:00:02.190Z,14.88
2023-08-27T06:02:29.070Z,14.87
2023-08-27T06:04:55.564Z,14.89
2023-08-27T06:07:22.141Z,14.88
2023-08-27T06:09:49.045Z,15.05
2023-08-27T06:12:15.865Z,15.03
2023-08-27T06:14:42.567Z,15.07
2023-08-27T06:17:09.013Z,14.97
2023-08-27T06:19:47.757Z,15.07
2023-08-27T06:22:15.125Z,15.10
2023-08-27T06:24:41.707Z,15.02
2023-08-27T06:27:08.147Z,14.98
2023-08-27T06:29:34.925Z,14.90
2023-08-27T06:32:01.491Z,14.71
2023-08-27T06:34:28.143Z,14.58
2023-08-27T06:36:54.546Z,14.55
2023-08-27T06:39:22.074Z,14.41
2023-08-27T06:41:48.544Z,14.39
2023-08-27T06:44:15.092Z,14.38
2023-08-27T06:46:41.573Z,14.37
2023-08-27T06:49:07.986Z,14.37
2023-08-27T06:51:34.530Z,14.38
2023-08-27T06:54:01.012Z,14.44
2023-08-27T06:56:27.707Z,14.51
2023-08-27T06:58:54.286Z,14.61
2023-08-27T07:01:20.973Z,14.80
2023-08-27T07:03:47.503Z,14.87
2023-08-27T07:06:14.440Z,14.84
2023-08-27T07:08:40.914Z,14.86
2023-08-27T07:11:07.457Z,14.91
2023-08-27T07:13:34.021Z,14.95
2023-08-27T07:16:00.811Z,15.03
2023-08-27T07:18:27.333Z,15.24
2023-08-27T07:20:55.988Z,15.30
2023-08-27T07:23:22.462Z,15.41
2023-08-27T07:25:49.040Z,15.54
2023-08-27T07:28:15.596Z,15.72
2023-08-27T07:30:42.238Z,16.01
2023-08-27T07:33:08.757Z,16.33
2023-08-27T07:35:35.563Z,16.54
2023-08-27T07:38:02.263Z,16.69
2023-08-27T07:40:35.011Z,16.64
2023-08-27T07:43:01.504Z,16.61
2023-08-27T07:45:28.588Z,16.48
2023-08-27T07:47:55.141Z,16.46
2023-08-27T07:50:21.636Z,16.39
2023-08-27T07:52:49.664Z,16.33
2023-08-27T07:55:16.419Z,16.39
2023-08-27T07:57:43.136Z,16.60
2023-08-27T08:00:10.349Z,16.60
2023-08-27T08:02:37.994Z,16.85
2023-08-27T08:05:04.690Z,16.99
2023-08-27T08:07:31.920Z,17.13
2023-08-27T08:09:58.357Z,17.33
2023-08-27T08:12:25.012Z,17.52
2023-08-27T08:14:51.413Z,17.67
2023-08-27T08:17:19.541Z,17.81
2023-08-27T08:19:47.463Z,17.95
2023-08-27T08:22:13.932Z,18.04
2023-08-27T08:24:40.384Z,18.13
2023-08-27T08:27:07.393Z,18.19
2023-08-27T08:29:34.081Z,18.07
2023-08-27T08:32:01.160Z,18.21
2023-08-27T08:34:31.236Z,18.12
2023-08-27T08:36:57.888Z,18.28
2023-08-27T08:39:27.326Z,18.37
2023-08-27T08:42:16.008Z,18.54
2023-08-27T08:45:02.025Z,18.61
2023-08-27T08:47:29.930Z,18.56
2023-08-27T08:49:59.064Z,18.63
2023-08-27T08:52:28.275Z,18.73
2023-08-27T08:54:56.365Z,18.84
2023-08-27T08:57:27.793Z,18.87
2023-08-27T08:59:55.446Z,18.87
2023-08-27T09:02:22.892Z,18.90
2023-08-27T09:04:50.210Z,18.78
2023-08-27T09:07:17.714Z,18.69
2023-08-27T09:09:44.639Z,18.66
2023-08-27T09:12:12.420Z,18.69
2023-08-27T09:14:39.279Z,18.75
2023-08-27T09:17:06.314Z,18.83
2023-08-27T09:19:33.352Z,18.71
2023-08-27T09:21:59.916Z,18.71
2023-08-27T09:24:26.441Z,18.75
2023-08-27T09:26:52.844Z,18.81
2023-08-27T09:29:20.825Z,18.69
2023-08-27T09:31:47.297Z,18.62
2023-08-27T09:34:20.162Z,18.69
2023-08-27T09:36:46.601Z,18.65
2023-08-27T09:39:13.485Z,18.72
2023-08-27T09:41:44.393Z,18.80
2023-08-27T09:44:12.241Z,18.88
2023-08-27T09:46:38.966Z,19.03
2023-08-27T09:49:07.853Z,19.02
2023-08-27T09:51:37.051Z,19.09
2023-08-27T09:54:22.957Z,19.14
2023-08-27T09:56:51.184Z,19.25
2023-08-27T09:59:19.345Z,19.18
2023-08-27T10:01:50.433Z,19.13
2023-08-27T10:04:18.395Z,19.07
2023-08-27T10:06:46.777Z,19.10
2023-08-27T10:09:13.997Z,19.15
2023-08-27T10:11:44.035Z,19.14
2023-08-27T10:14:11.187Z,19.07
2023-08-27T10:16:39.661Z,18.99
2023-08-27T10:19:06.314Z,19.04
2023-08-27T10:21:34.012Z,19.11
2023-08-27T10:24:01.834Z,19.08
2023-08-27T10:26:29.789Z,19.22
2023-08-27T10:28:56.905Z,19.20
2023-08-27T10:31:23.384Z,19.33
2023-08-27T10:33:50.666Z,19.33
2023-08-27T10:36:25.830Z,19.37
2023-08-27T10:38:54.899Z,19.44
2023-08-27T10:41:24.988Z,19.28
2023-08-27T10:43:51.590Z,19.43
2023-08-27T10:46:19.545Z,19.35
2023-08-27T10:48:51.119Z,19.48
2023-08-27T10:51:19.257Z,19.65
2023-08-27T10:53:51.659Z,19.64
2023-08-27T10:56:39.900Z,19.66
2023-08-27T10:59:11.586Z,19.74
2023-08-27T11:02:09.111Z,19.56
2023-08-27T11:04:51.020Z,19.93
2023-08-27T11:07:19.339Z,20.24
2023-08-27T11:09:57.297Z,20.71
2023-08-27T11:12:29.199Z,20.81
2023-08-27T11:15:09.776Z,21.03
2023-08-27T11:17:36.505Z,21.17
2023-08-27T11:20:25.803Z,21.21
2023-08-27T11:23:00.360Z,21.24
2023-08-27T11:25:30.713Z,21.21
2023-08-27T11:28:00.239Z,21.05
2023-08-27T11:30:27.784Z,20.85
2023-08-27T11:32:55.407Z,20.64
2023-08-27T11:35:27.853Z,20.22
2023-08-27T11:37:57.671Z,19.92
2023-08-27T11:40:25.978Z,19.70
2023-08-27T11:42:58.958Z,19.66
2023-08-27T11:45:33.127Z,19.62
2023-08-27T11:48:05.910Z,19.57
2023-08-27T11:50:38.918Z,19.49
2023-08-27T11:53:06.223Z,19.43
2023-08-27T11:55:32.835Z,19.43
2023-08-27T11:57:59.881Z,19.35
2023-08-27T12:00:27.995Z,19.45
2023-08-27T12:02:54.866Z,19.68
2023-08-27T12:05:22.008Z,19.95
2023-08-27T12:07:48.457Z,20.07
2023-08-27T12:10:15.576Z,20.08
2023-08-27T12:12:44.213Z,20.11
2023-08-27T12:15:12.229Z,20.11
2023-08-27T12:17:38.912Z,20.06
2023-08-27T12:20:08.480Z,20.00
2023-08-27T12:22:45.886Z,20.05
2023-08-27T12:25:13.021Z,19.92
2023-08-27T12:27:41.782Z,19.92
2023-08-27T12:30:08.716Z,19.82
2023-08-27T12:32:35.650Z,19.70
2023-08-27T12:35:03.031Z,19.33
2023-08-27T12:37:29.862Z,18.96
2023-08-27T12:39:57.089Z,18.62
2023-08-27T12:42:26.205Z,18.44
2023-08-27T12:44:53.410Z,18.12
2023-08-27T12:47:19.842Z,18.08
2023-08-27T12:49:46.512Z,18.49
2023-08-27T12:52:13.006Z,18.86
2023-08-27T12:54:39.444Z,19.22
2023-08-27T12:57:05.909Z,19.57
2023-08-27T12:59:32.554Z,19.88
2023-08-27T13:01:59.112Z,20.10
2023-08-27T13:04:28.743Z,20.36
2023-08-27T13:06:55.286Z,20.51
2023-08-27T13:09:21.666Z,20.87
2023-08-27T13:11:48.527Z,20.74
2023-08-27T13:14:14.950Z,20.75
2023-08-27T13:16:43.780Z,20.84
2023-08-27T13:19:10.355Z,21.13
2023-08-27T13:21:37.039Z,21.18
2023-08-27T13:24:05.010Z,21.13
2023-08-27T13:26:31.830Z,21.21
2023-08-27T13:28:58.426Z,21.40
2023-08-27T13:31:25.159Z,21.51
2023-08-27T13:33:51.772Z,21.50
2023-08-27T13:36:18.649Z,21.58
2023-08-27T13:38:45.161Z,21.74
2023-08-27T13:41:12.788Z,21.96
2023-08-27T13:43:39.228Z,21.90
2023-08-27T13:46:06.364Z,21.82
2023-08-27T13:48:32.927Z,21.85
2023-08-27T13:51:00.510Z,21.82
2023-08-27T13:53:28.262Z,21.89
2023-08-27T13:55:54.759Z,21.78
2023-08-27T13:58:21.219Z,21.58
2023-08-27T14:00:47.800Z,21.29
2023-08-27T14:03:14.458Z,21.05
2023-08-27T14:05:44.463Z,20.81
2023-08-27T14:08:10.988Z,20.73
2023-08-27T14:10:40.760Z,20.66
2023-08-27T14:13:07.684Z,20.77
2023-08-27T14:15:36.841Z,20.71
2023-08-27T14:18:04.407Z,20.76
2023-08-27T14:20:31.623Z,20.70
2023-08-27T14:22:58.156Z,20.69
2023-08-27T14:25:24.900Z,20.65
2023-08-27T14:27:51.399Z,20.58
2023-08-27T14:30:19.173Z,20.52
2023-08-27T14:32:45.845Z,20.45
2023-08-27T14:35:13.965Z,20.41
2023-08-27T14:37:40.806Z,20.51
2023-08-27T14:40:08.380Z,20.54
2023-08-27T14:42:36.087Z,20.68
2023-08-27T14:45:02.887Z,21.00
2023-08-27T14:47:29.710Z,21.11
2023-08-27T14:49:56.292Z,20.92
2023-08-27T14:52:23.949Z,20.95
2023-08-27T14:54:50.613Z,20.88
2023-08-27T14:57:17.433Z,20.82
2023-08-27T14:59:46.926Z,20.46
2023-08-27T15:02:15.182Z,20.47
2023-08-27T15:04:43.157Z,20.86
2023-08-27T15:07:10.241Z,21.38
2023-08-27T15:09:36.813Z,21.44
2023-08-27T15:12:04.712Z,21.14
2023-08-27T15:14:31.318Z,21.14
2023-08-27T15:16:57.955Z,21.08
2023-08-27T15:19:24.607Z,21.27
2023-08-27T15:21:51.242Z,21.15
2023-08-27T15:24:17.805Z,21.05
2023-08-27T15:26:45.187Z,20.88
2023-08-27T15:29:11.694Z,20.76
2023-08-27T15:31:38.418Z,20.46
2023-08-27T15:34:06.709Z,20.34
2023-08-27T15:36:34.206Z,20.13
2023-08-27T15:39:00.865Z,20.01
2023-08-27T15:41:30.452Z,19.89
2023-08-27T15:43:58.342Z,19.94
2023-08-27T15:46:28.392Z,19.80
2023-08-27T15:48:55.694Z,19.82
2023-08-27T15:51:24.444Z,20.03
2023-08-27T15:53:52.056Z,20.35
2023-08-27T15:56:19.458Z,20.33
2023-08-27T15:58:47.826Z,20.39
2023-08-27T16:01:14.737Z,20.15
2023-08-27T16:03:42.952Z,20.01
2023-08-27T16:06:09.521Z,19.88
2023-08-27T16:08:36.673Z,19.64
2023-08-27T16:11:05.469Z,19.35
2023-08-27T16:13:32.034Z,19.42
2023-08-27T16:15:58.609Z,19.34
2023-08-27T16:18:27.250Z,19.11
2023-08-27T16:20:53.807Z,19.05
2023-08-27T16:23:20.396Z,18.79
2023-08-27T16:25:47.719Z,18.92
2023-08-27T16:28:14.733Z,18.95
2023-08-27T16:30:41.357Z,18.98
2023-08-27T16:33:08.485Z,19.07
2023-08-27T16:35:35.168Z,19.14
2023-08-27T16:38:01.960Z,19.01
2023-08-27T16:40:39.712Z,18.98
2023-08-27T16:43:06.934Z,18.96
2023-08-27T16:45:33.886Z,18.94
2023-08-27T16:48:00.978Z,18.98
2023-08-27T16:50:27.840Z,19.05
2023-08-27T16:52:54.459Z,18.86
2023-08-27T16:55:21.785Z,18.87
2023-08-27T16:57:49.924Z,18.66
2023-08-27T17:00:17.154Z,18.64
2023-08-27T17:02:43.656Z,18.24
2023-08-27T17:05:10.525Z,18.17
2023-08-27T17:07:38.466Z,17.93
2023-08-27T17:10:06.694Z,17.72
2023-08-27T17:12:33.138Z,17.51
2023-08-27T17:14:59.734Z,17.44
2023-08-27T17:17:26.397Z,17.37
2023-08-27T17:19:53.534Z,17.33
2023-08-27T17:22:22.156Z,17.20
2023-08-27T17:24:48.694Z,17.11
2023-08-27T17:27:15.300Z,17.04
2023-08-27T17:29:41.983Z,17.00
2023-08-27T17:32:09.781Z,16.98
2023-08-27T17:34:36.913Z,17.00
2023-08-27T17:37:04.835Z,17.00
2023-08-27T17:39:31.476Z,16.97
2023-08-27T17:41:58.130Z,16.93
2023-08-27T17:44:24.737Z,16.89
2023-08-27T17:46:51.236Z,16.74
2023-08-27T17:49:17.853Z,16.73
2023-08-27T17:51:44.301Z,16.63
2023-08-27T17:54:10.913Z,16.60
2023-08-27T17:56:37.346Z,16.58
2023-08-27T17:59:04.024Z,16.57
2023-08-27T18:01:30.656Z,16.54
2023-08-27T18:03:57.119Z,16.56
2023-08-27T18:06:23.683Z,16.52
2023-08-27T18:08:50.243Z,16.51
2023-08-27T18:11:16.881Z,16.41
2023-08-27T18:13:43.334Z,16.37
2023-08-27T18:16:10.054Z,16.42
2023-08-27T18:18:37.368Z,16.30
2023-08-27T18:21:04.172Z,16.33
2023-08-27T18:23:30.891Z,16.34
2023-08-27T18:26:04.587Z,16.31
2023-08-27T18:28:32.212Z,16.34
2023-08-27T18:30:59.268Z,16.29
2023-08-27T18:33:25.841Z,16.32
2023-08-27T18:35:52.636Z,16.17
2023-08-27T18:38:19.170Z,16.05
2023-08-27T18:40:45.737Z,15.91
2023-08-27T18:43:12.300Z,15.74
2023-08-27T18:45:38.925Z,15.65
2023-08-27T18:48:05.979Z,15.57
2023-08-27T18:50:33.041Z,15.45
2023-08-27T18:52:59.812Z,15.26
2023-08-27T18:55:26.350Z,15.14
2023-08-27T18:57:52.758Z,15.02
2023-08-27T19:00:19.813Z,14.93
2023-08-27T19:02:46.498Z,14.83
2023-08-27T19:05:13.177Z,14.72
2023-08-27T19:07:39.716Z,14.55
2023-08-27T19:10:07.723Z,14.44
2023-08-27T19:12:34.209Z,14.44
2023-08-27T19:15:00.696Z,14.32
2023-08-27T19:17:27.283Z,14.28
2023-08-27T19:19:55.244Z,14.24
2023-08-27T19:22:23.163Z,14.14
2023-08-27T19:24:51.074Z,14.12
2023-08-27T19:27:17.553Z,14.10
2023-08-27T19:29:44.068Z,14.07
2023-08-27T19:32:10.660Z,13.99
2023-08-27T19:34:38.176Z,13.87
2023-08-27T19:37:06.381Z,13.84
2023-08-27T19:39:33.188Z,13.79
2023-08-27T19:41:59.715Z,13.77
2023-08-27T19:44:26.233Z,13.63
2023-08-27T19:46:53.676Z,13.63
2023-08-27T19:49:20.248Z,13.64
2023-08-27T19:51:48.940Z,13.55
2023-08-27T19:54:16.619Z,13.50
2023-08-27T19:56:44.890Z,13.45
2023-08-27T19:59:12.171Z,13.40
2023-08-27T20:01:38.771Z,13.41
2023-08-27T20:04:05.711Z,13.42
2023-08-27T20:06:32.287Z,13.42
2023-08-27T20:08:58.815Z,13.46
2023-08-27T20:11:25.344Z,13.45
2023-08-27T20:13:52.105Z,13.42
2023-08-27T20:16:18.600Z,13.43
2023-08-27T20:18:45.291Z,13.37
2023-08-27T20:21:11.978Z,13.33
2023-08-27T20:23:38.452Z,13.30
2023-08-27T20:26:05.501Z,13.24
2023-08-27T20:28:32.312Z,13.14
2023-08-27T20:30:58.761Z,13.09
2023-08-27T20:33:25.358Z,13.03
2023-08-27T20:35:51.832Z,12.95
2023-08-27T20:38:18.389Z,12.86
2023-08-27T20:40:45.106Z,12.89
2023-08-27T20:43:14.204Z,12.93
2023-08-27T20:45:44.201Z,12.88
2023-08-27T20:48:11.587Z,12.83
2023-08-27T20:50:38.182Z,12.78
2023-08-27T20:53:04.858Z,12.71
2023-08-27T20:55:31.623Z,12.71
2023-08-27T20:57:58.176Z,12.65
2023-08-27T21:00:25.841Z,12.60
2023-08-27T21:02:52.336Z,12.54
2023-08-27T21:05:19.163Z,12.52
2023-08-27T21:07:46.119Z,12.48
2023-08-27T21:10:13.251Z,12.45
2023-08-27T21:12:39.784Z,12.40
2023-08-27T21:15:07.040Z,12.36
2023-08-27T21:17:33.558Z,12.30
2023-08-27T21:20:00.144Z,12.29
2023-08-27T21:22:27.879Z,12.28
2023-08-27T21:24:54.320Z,12.33
2023-08-27T21:27:20.956Z,12.33
2023-08-27T21:29:47.448Z,12.37
2023-08-27T21:32:14.666Z,12.34
2023-08-27T21:34:41.234Z,12.31
2023-08-27T21:37:07.897Z,12.30
2023-08-27T21:39:34.339Z,12.29
2023-08-27T21:42:01.045Z,12.35
2023-08-27T21:44:27.470Z,12.25
2023-08-27T21:46:54.090Z,12.23
2023-08-27T21:49:21.588Z,12.19
2023-08-27T21:51:48.219Z,12.22
2023-08-27T21:54:14.719Z,12.29
2023-08-27T21:56:41.402Z,12.32
2023-08-27T21:59:07.892Z,12.32
2023-08-27T22:01:34.760Z,12.27
2023-08-27T22:04:01.628Z,12.24
2023-08-27T22:06:29.202Z,12.19
2023-08-27T22:08:55.638Z,12.13
2023-08-27T22:11:22.714Z,12.03
2023-08-27T22:13:49.312Z,11.90
2023-08-27T22:16:16.084Z,11.89
2023-08-27T22:18:43.536Z,11.83
2023-08-27T22:21:10.293Z,11.82
2023-08-27T22:23:37.794Z,11.77
2023-08-27T22:26:04.747Z,11.72
2023-08-27T22:28:31.326Z,11.70
2023-08-27T22:30:57.877Z,11.64
2023-08-27T22:33:25.237Z,11.53
2023-08-27T22:35:51.805Z,11.44
2023-08-27T22:38:18.257Z,11.42
2023-08-27T22:40:45.399Z,11.37
2023-08-27T22:43:12.050Z,11.35
2023-08-27T22:45:40.648Z,11.30
2023-08-27T22:48:08.057Z,11.32
2023-08-27T22:50:34.747Z,11.26
2023-08-27T22:53:01.424Z,11.20
2023-08-27T22:55:28.252Z,11.14
2023-08-27T22:57:54.699Z,11.12
2023-08-27T23:00:28.531Z,11.06
2023-08-27T23:02:55.099Z,11.10
2023-08-27T23:05:21.847Z,11.06
2023-08-27T23:07:48.727Z,11.01
2023-08-27T23:10:15.596Z,10.96
2023-08-27T23:12:42.046Z,10.85
2023-08-27T23:15:09.214Z,10.77
2023-08-27T23:17:36.408Z,10.74
2023-08-27T23:20:03.089Z,10.72
2023-08-27T23:22:29.662Z,10.68
2023-08-27T23:25:01.129Z,10.68
2023-08-27T23:27:28.032Z,10.65
2023-08-27T23:29:55.000Z,10.68
2023-08-27T23:32:21.724Z,10.73
2023-08-27T23:34:48.315Z,10.70
2023-08-27T23:37:15.211Z,10.72
2023-08-27T23:39:41.652Z,10.69
2023-08-27T23:42:08.631Z,10.68
2023-08-27T23:44:35.930Z,10.69
2023-08-27T23:47:04.402Z,10.62
2023-08-27T23:49:30.882Z,10.62
2023-08-27T23:51:58.495Z,10.63
2023-08-27T23:54:24.939Z,10.66
2023-08-27T23:56:51.501Z,10.59
2023-08-27T23:59:17.984Z,10.55
